createdAt,value
2018-07-27T00:01:36.796Z,50.80
2018-07-27T00:06:56.041Z,64.47
2018-07-27T00:09:32.668Z,55.53
2018-07-27T00:12:05.194Z,53.77
2018-07-27T00:14:42.396Z,52.73
2018-07-27T00:17:15.622Z,40.67
2018-07-27T00:21:24.930Z,47.53
2018-07-27T00:24:03.948Z,52.97
2018-07-27T00:26:37.605Z,45.97
2018-07-27T00:29:12.288Z,42.93
2018-07-27T00:31:45.948Z,45.87
2018-07-27T00:34:22.689Z,47.40
2018-07-27T00:37:02.126Z,38.67
2018-07-27T00:39:34.537Z,37.10
2018-07-27T00:42:06.883Z,39.77
2018-07-27T00:44:39.464Z,41.13
2018-07-27T00:47:11.868Z,49.63
2018-07-27T00:49:45.063Z,57.30
2018-07-27T00:52:26.925Z,46.50
2018-07-27T00:57:47.746Z,51.57
2018-07-27T01:00:25.392Z,49.73
2018-07-27T01:02:58.509Z,54.23
2018-07-27T01:05:45.999Z,49.27
2018-07-27T01:08:17.146Z,42.70
2018-07-27T01:10:50.135Z,44.43
2018-07-27T01:13:21.157Z,52.70
2018-07-27T01:15:57.871Z,46.57
2018-07-27T01:18:35.738Z,37.53
2018-07-27T01:21:08.553Z,54.13
2018-07-27T01:23:42.295Z,52.87
2018-07-27T01:26:16.439Z,44.83
2018-07-27T01:28:57.663Z,50.23
2018-07-27T01:31:38.499Z,47.97
2018-07-27T01:34:14.648Z,53.63
2018-07-27T01:36:47.691Z,45.93
2018-07-27T01:39:21.651Z,41.10
2018-07-27T01:41:54.996Z,51.77
2018-07-27T01:44:46.616Z,44.47
2018-07-27T01:47:26.919Z,46.17
2018-07-27T01:49:59.291Z,39.17
2018-07-27T01:52:52.386Z,29.73
2018-07-27T01:55:29.439Z,27.37
2018-07-27T01:58:38.166Z,39.63
2018-07-27T02:01:16.032Z,39.70
2018-07-27T02:03:50.136Z,32.50
2018-07-27T02:06:24.946Z,28.30
2018-07-27T02:09:00.177Z,31.60
2018-07-27T02:11:37.729Z,36.10
2018-07-27T02:14:12.101Z,41.67
2018-07-27T02:16:57.083Z,42.03
2018-07-27T02:19:35.041Z,26.07
2018-07-27T02:22:10.465Z,23.90
2018-07-27T02:24:41.972Z,27.67
2018-07-27T02:27:13.043Z,30.53
2018-07-27T02:29:44.958Z,25.73
2018-07-27T02:32:18.016Z,23.47
2018-07-27T02:34:50.256Z,24.40
2018-07-27T02:37:21.689Z,27.50
2018-07-27T02:39:55.512Z,24.63
2018-07-27T02:42:27.995Z,24.07
2018-07-27T02:44:59.674Z,31.73
2018-07-27T02:47:31.371Z,21.40
2018-07-27T02:50:04.110Z,30.07
2018-07-27T02:52:35.190Z,25.20
2018-07-27T02:55:09.255Z,17.13
2018-07-27T02:57:42.012Z,19.23
2018-07-27T03:00:14.416Z,30.00
2018-07-27T03:02:51.457Z,31.20
2018-07-27T03:05:25.540Z,23.57
2018-07-27T03:07:58.051Z,28.23
2018-07-27T03:10:31.394Z,31.87
2018-07-27T03:13:02.618Z,26.80
2018-07-27T03:15:35.673Z,30.23
2018-07-27T03:18:08.857Z,23.63
2018-07-27T03:20:40.159Z,31.10
2018-07-27T03:23:12.892Z,28.57
2018-07-27T03:25:44.116Z,28.17
2018-07-27T03:28:16.672Z,24.63
2018-07-27T03:30:48.906Z,28.87
2018-07-27T03:33:21.176Z,16.30
2018-07-27T03:35:54.139Z,31.17
2018-07-27T03:38:27.162Z,25.07
2018-07-27T03:40:58.775Z,24.27
2018-07-27T03:43:32.716Z,32.57
2018-07-27T03:46:05.129Z,27.60
2018-07-27T03:48:37.759Z,27.03
2018-07-27T03:51:10.973Z,16.70
2018-07-27T03:53:42.032Z,17.63
2018-07-27T03:56:13.226Z,22.33
2018-07-27T03:58:46.258Z,26.43
2018-07-27T04:01:17.205Z,18.13
2018-07-27T04:03:49.757Z,19.03
2018-07-27T04:06:20.846Z,21.60
2018-07-27T04:08:53.590Z,23.70
2018-07-27T04:11:24.679Z,21.53
2018-07-27T04:13:56.387Z,36.67
2018-07-27T04:16:28.910Z,26.20
2018-07-27T04:21:59.923Z,13.57
2018-07-27T04:27:48.108Z,19.27
2018-07-27T04:30:20.596Z,24.53
2018-07-27T04:32:53.962Z,15.67
2018-07-27T04:35:26.413Z,20.87
2018-07-27T04:37:58.829Z,20.83
2018-07-27T04:40:31.605Z,16.23
2018-07-27T04:43:06.874Z,22.33
2018-07-27T04:45:40.016Z,12.87
2018-07-27T04:48:12.524Z,26.33
2018-07-27T04:50:44.964Z,35.40
2018-07-27T04:53:17.484Z,21.23
2018-07-27T04:55:50.025Z,25.10
2018-07-27T04:58:21.339Z,23.80
2018-07-27T05:00:54.647Z,15.67
2018-07-27T05:03:29.445Z,25.83
2018-07-27T05:06:02.359Z,20.53
2018-07-27T05:08:38.943Z,25.30
2018-07-27T05:11:11.386Z,25.00
2018-07-27T05:13:43.782Z,24.53
2018-07-27T05:16:17.058Z,34.93
2018-07-27T05:18:48.001Z,20.37
2018-07-27T05:21:20.820Z,21.33
2018-07-27T05:23:52.465Z,28.73
2018-07-27T05:26:24.738Z,13.23
2018-07-27T05:28:55.835Z,23.53
2018-07-27T05:31:27.045Z,23.90
2018-07-27T05:33:59.691Z,24.53
2018-07-27T05:36:32.159Z,23.13
2018-07-27T05:39:05.022Z,19.43
2018-07-27T05:41:37.325Z,22.10
2018-07-27T05:44:10.109Z,17.97
2018-07-27T05:46:44.044Z,28.20
2018-07-27T05:49:15.478Z,20.63
2018-07-27T05:51:46.633Z,24.37
2018-07-27T05:54:17.683Z,15.90
2018-07-27T05:56:49.120Z,25.03
2018-07-27T05:59:20.021Z,24.93
2018-07-27T06:01:52.352Z,21.17
2018-07-27T06:04:24.788Z,20.87
2018-07-27T06:06:55.915Z,21.70
2018-07-27T06:09:28.396Z,19.87
2018-07-27T06:12:00.783Z,25.53
2018-07-27T06:14:33.215Z,22.67
2018-07-27T06:17:04.812Z,20.23
2018-07-27T06:19:36.896Z,13.73
2018-07-27T06:22:08.226Z,24.93
2018-07-27T06:24:50.528Z,16.17
2018-07-27T06:27:22.660Z,26.03
2018-07-27T06:29:56.109Z,21.60
2018-07-27T06:32:28.299Z,25.50
2018-07-27T06:34:59.322Z,24.27
2018-07-27T06:37:30.189Z,13.33
2018-07-27T06:40:02.656Z,19.30
2018-07-27T06:42:33.700Z,31.40
2018-07-27T06:45:04.530Z,22.40
2018-07-27T06:47:36.892Z,18.07
2018-07-27T06:50:09.608Z,14.20
2018-07-27T06:52:42.084Z,18.00
2018-07-27T06:55:14.176Z,20.67
2018-07-27T06:57:45.296Z,22.20
2018-07-27T07:00:17.336Z,13.93
2018-07-27T07:02:49.678Z,20.67
2018-07-27T07:05:22.018Z,17.63
2018-07-27T07:07:54.470Z,15.10
2018-07-27T07:10:28.173Z,16.90
2018-07-27T07:13:00.417Z,22.63
2018-07-27T07:15:31.556Z,21.43
2018-07-27T07:18:02.784Z,27.30
2018-07-27T07:20:34.947Z,17.93
2018-07-27T07:23:06.427Z,16.40
2018-07-27T07:25:37.615Z,24.00
2018-07-27T07:28:10.089Z,20.97
2018-07-27T07:30:42.587Z,23.57
2018-07-27T07:33:15.071Z,17.33
2018-07-27T07:35:46.234Z,19.67
2018-07-27T07:38:17.264Z,19.87
2018-07-27T07:40:49.313Z,22.33
2018-07-27T07:43:21.935Z,18.03
2018-07-27T07:45:52.852Z,25.07
2018-07-27T07:48:25.439Z,23.57
2018-07-27T07:50:57.812Z,21.23
2018-07-27T07:53:30.439Z,19.07
2018-07-27T07:56:01.450Z,18.23
2018-07-27T07:58:32.997Z,27.47
2018-07-27T08:01:04.003Z,25.57
2018-07-27T08:03:37.214Z,15.63
2018-07-27T08:06:09.905Z,16.03
2018-07-27T08:08:42.217Z,21.93
2018-07-27T08:11:14.991Z,29.43
2018-07-27T08:13:46.095Z,23.73
2018-07-27T08:16:16.912Z,28.20
2018-07-27T08:18:47.972Z,32.13
2018-07-27T08:21:26.506Z,20.73
2018-07-27T08:23:59.145Z,27.93
2018-07-27T08:26:52.179Z,25.13
2018-07-27T08:29:27.406Z,18.67
2018-07-27T08:31:59.470Z,18.63
2018-07-27T08:34:31.745Z,16.07
2018-07-27T08:37:04.152Z,26.63
2018-07-27T08:39:37.718Z,19.67
2018-07-27T08:42:09.971Z,26.33
2018-07-27T08:44:43.240Z,21.13
2018-07-27T08:47:15.593Z,22.07
2018-07-27T08:49:47.885Z,25.03
2018-07-27T08:52:19.118Z,17.83
2018-07-27T08:54:51.519Z,22.87
2018-07-27T08:57:23.965Z,22.47
2018-07-27T08:59:54.962Z,19.00
2018-07-27T09:02:25.876Z,21.73
2018-07-27T09:04:57.958Z,24.60
2018-07-27T09:07:30.132Z,23.73
2018-07-27T09:10:02.541Z,21.57
2018-07-27T09:12:35.563Z,21.80
2018-07-27T09:15:08.086Z,25.60
2018-07-27T09:17:39.112Z,27.00
2018-07-27T09:26:37.409Z,25.27
2018-07-27T09:29:09.917Z,22.47
2018-07-27T09:31:42.434Z,30.53
2018-07-27T09:34:14.926Z,24.00
2018-07-27T09:36:47.205Z,25.90
2018-07-27T09:39:19.396Z,19.23
2018-07-27T09:41:52.423Z,24.70
2018-07-27T09:44:23.453Z,20.73
2018-07-27T09:46:54.743Z,18.10
2018-07-27T09:49:25.755Z,20.90
2018-07-27T09:51:56.768Z,22.57
2018-07-27T09:54:27.771Z,28.93
2018-07-27T09:56:58.700Z,25.43
2018-07-27T09:59:29.628Z,30.33
2018-07-27T10:02:00.628Z,20.33
2018-07-27T10:04:31.614Z,16.37
2018-07-27T10:07:03.123Z,17.80
2018-07-27T10:09:35.496Z,22.13
2018-07-27T10:12:07.679Z,30.50
2018-07-27T10:14:39.780Z,29.43
2018-07-27T10:17:12.328Z,53.23
2018-07-27T10:19:43.232Z,63.57
2018-07-27T10:22:14.177Z,66.30
2018-07-27T10:24:46.544Z,76.07
2018-07-27T10:27:19.007Z,64.97
2018-07-27T10:29:51.609Z,30.67
2018-07-27T10:32:23.508Z,27.07
2018-07-27T10:34:56.895Z,27.37
2018-07-27T10:37:30.208Z,24.73
2018-07-27T10:40:02.526Z,19.40
2018-07-27T10:42:33.626Z,19.83
2018-07-27T10:45:05.947Z,21.00
2018-07-27T10:47:38.673Z,17.97
2018-07-27T10:50:11.086Z,17.60
2018-07-27T10:52:43.498Z,21.20
2018-07-27T10:55:15.696Z,17.20
2018-07-27T10:57:48.034Z,14.57
2018-07-27T11:00:21.016Z,16.57
2018-07-27T11:02:53.280Z,21.00
2018-07-27T11:05:25.453Z,31.00
2018-07-27T11:07:57.817Z,18.13
2018-07-27T11:10:29.942Z,21.73
2018-07-27T11:13:04.157Z,28.57
2018-07-27T11:15:38.933Z,23.67
2018-07-27T11:18:11.379Z,25.17
2018-07-27T11:20:43.563Z,21.23
2018-07-27T11:23:14.699Z,22.37
2018-07-27T11:25:47.169Z,20.50
2018-07-27T11:28:18.134Z,28.23
2018-07-27T11:30:51.481Z,24.60
2018-07-27T11:33:24.363Z,18.57
2018-07-27T11:35:55.925Z,23.07
2018-07-27T11:38:30.213Z,17.73
2018-07-27T11:41:01.276Z,25.80
2018-07-27T11:43:32.435Z,21.13
2018-07-27T11:46:03.428Z,33.67
2018-07-27T11:48:38.471Z,26.40
2018-07-27T11:51:14.369Z,35.07
2018-07-27T11:53:45.323Z,24.47
2018-07-27T11:56:16.738Z,30.77
2018-07-27T11:58:48.035Z,37.03
2018-07-27T12:01:19.180Z,35.53
2018-07-27T12:03:50.965Z,37.83
2018-07-27T12:06:25.002Z,28.20
2018-07-27T12:09:05.100Z,23.70
2018-07-27T12:11:41.197Z,29.07
2018-07-27T12:14:15.319Z,26.20
2018-07-27T12:16:48.382Z,24.30
2018-07-27T12:19:20.393Z,32.00
2018-07-27T12:21:51.893Z,26.97
2018-07-27T12:24:23.213Z,22.30
2018-07-27T12:26:56.223Z,24.20
2018-07-27T12:29:41.380Z,26.23
2018-07-27T12:32:14.525Z,21.10
2018-07-27T12:34:47.528Z,28.20
2018-07-27T12:37:18.930Z,22.90
2018-07-27T12:39:51.438Z,21.33
2018-07-27T12:42:22.984Z,22.37
2018-07-27T12:56:01.801Z,28.27
2018-07-27T12:58:35.439Z,27.40
2018-07-27T13:01:07.037Z,36.20
2018-07-27T13:03:40.480Z,35.70
2018-07-27T13:09:27.190Z,42.97
2018-07-27T13:18:09.458Z,26.93
2018-07-27T13:20:47.005Z,28.23
2018-07-27T13:23:19.955Z,24.53
2018-07-27T13:28:59.551Z,23.20
2018-07-27T13:32:03.249Z,24.23
2018-07-27T13:34:42.992Z,39.13
2018-07-27T13:37:18.998Z,31.03
2018-07-27T13:39:56.266Z,27.63
2018-07-27T13:42:36.159Z,54.03
2018-07-27T13:45:11.472Z,37.30
2018-07-27T13:47:47.539Z,35.53
2018-07-27T13:50:20.694Z,32.47
2018-07-27T13:52:52.398Z,17.73
2018-07-27T13:55:27.363Z,30.30
2018-07-27T13:58:08.592Z,29.30
2018-07-27T14:00:43.709Z,26.70
2018-07-27T14:03:15.725Z,21.83
2018-07-27T14:06:03.068Z,27.30
2018-07-27T14:08:34.393Z,48.13
2018-07-27T14:11:12.237Z,48.67
2018-07-27T14:13:43.509Z,18.53
2018-07-27T14:16:15.779Z,28.23
2018-07-27T14:18:46.892Z,28.30
2018-07-27T14:21:17.851Z,21.97
2018-07-27T14:23:49.809Z,17.50
2018-07-27T14:26:26.357Z,19.77
2018-07-27T14:29:06.304Z,22.93
2018-07-27T14:31:38.857Z,27.30
2018-07-27T14:34:10.192Z,22.53
2018-07-27T14:36:43.049Z,51.97
2018-07-27T14:39:16.364Z,107.53
2018-07-27T14:41:48.937Z,25.03
2018-07-27T14:44:22.978Z,21.17
2018-07-27T14:46:54.473Z,39.37
2018-07-27T14:49:25.926Z,26.00
2018-07-27T14:51:58.387Z,64.70
2018-07-27T14:54:29.286Z,20.03
2018-07-27T14:57:01.490Z,15.30
2018-07-27T14:59:34.349Z,15.73
2018-07-27T15:02:07.050Z,22.67
2018-07-27T15:04:39.595Z,12.27
2018-07-27T15:07:13.621Z,23.40
2018-07-27T15:09:45.314Z,31.67
2018-07-27T15:12:18.337Z,32.27
2018-07-27T15:14:49.845Z,24.27
2018-07-27T15:17:22.404Z,21.10
2018-07-27T15:19:54.424Z,18.37
2018-07-27T15:22:26.910Z,45.37
2018-07-27T15:25:01.734Z,13.27
2018-07-27T15:27:34.221Z,12.30
2018-07-27T15:30:07.070Z,20.83
2018-07-27T15:32:39.258Z,16.20
2018-07-27T15:35:11.829Z,17.90
2018-07-27T15:37:43.190Z,23.17
2018-07-27T15:40:18.765Z,47.67
2018-07-27T15:42:57.021Z,39.00
2018-07-27T15:45:29.807Z,12.20
2018-07-27T15:48:07.047Z,22.70
2018-07-27T15:50:40.032Z,13.27
2018-07-27T15:53:12.856Z,14.97
2018-07-27T15:55:44.721Z,29.10
2018-07-27T15:58:17.848Z,20.17
2018-07-27T16:00:50.124Z,24.87
2018-07-27T16:03:21.126Z,19.50
2018-07-27T16:05:53.453Z,21.30
2018-07-27T16:08:24.643Z,22.70
2018-07-27T16:10:56.439Z,18.87
2018-07-27T16:13:30.679Z,36.93
2018-07-27T16:16:07.004Z,21.60
2018-07-27T16:18:40.844Z,15.80
2018-07-27T16:24:00.913Z,14.60
2018-07-27T16:26:40.250Z,20.07
2018-07-27T16:29:17.209Z,18.40
2018-07-27T16:31:50.566Z,23.70
2018-07-27T16:34:24.353Z,22.97
2018-07-27T16:37:05.611Z,27.32
2018-07-27T16:40:28.145Z,25.13
2018-07-27T16:43:13.790Z,20.03
2018-07-27T16:48:45.609Z,14.75
2018-07-27T16:51:18.410Z,17.10
2018-07-27T16:53:51.630Z,21.33
2018-07-27T16:56:27.759Z,15.80
2018-07-27T17:01:39.168Z,25.77
2018-07-27T17:04:25.418Z,18.30
2018-07-27T17:07:00.711Z,21.03
2018-07-27T17:09:49.359Z,20.90
2018-07-27T17:12:25.259Z,18.73
2018-07-27T17:15:02.895Z,22.75
2018-07-27T17:20:17.662Z,26.50
2018-07-27T17:22:50.853Z,21.97
2018-07-27T17:25:24.814Z,20.32
2018-07-27T17:27:59.547Z,18.67
2018-07-27T17:33:16.575Z,14.55
2018-07-27T17:35:49.376Z,20.88
2018-07-27T17:38:21.765Z,16.25
2018-07-27T17:40:56.989Z,27.75
2018-07-27T17:43:31.198Z,21.23
2018-07-27T17:46:09.121Z,15.13
2018-07-27T17:48:52.683Z,12.07
2018-07-27T17:51:35.567Z,18.90
2018-07-27T17:54:12.379Z,28.52
2018-07-27T17:56:53.989Z,15.43
2018-07-27T18:02:16.317Z,18.32
2018-07-27T18:04:52.261Z,24.37
2018-07-27T18:07:29.084Z,18.42
2018-07-27T18:10:03.818Z,16.65
2018-07-27T18:12:44.578Z,30.10
2018-07-27T18:15:27.664Z,27.00
2018-07-27T18:18:04.742Z,20.88
2018-07-27T18:20:41.870Z,20.45
2018-07-27T18:23:18.353Z,18.70
2018-07-27T18:25:53.322Z,15.35
2018-07-27T18:32:04.837Z,19.00
2018-07-27T18:34:46.518Z,15.28
2018-07-27T18:37:24.355Z,20.97
2018-07-27T18:39:57.586Z,14.57
2018-07-27T18:43:04.128Z,13.05
2018-07-27T18:45:46.449Z,15.95
2018-07-27T18:51:43.127Z,14.58
2018-07-27T18:54:23.776Z,25.00
2018-07-27T18:57:16.361Z,12.55
2018-07-27T18:59:49.954Z,17.62
2018-07-27T19:02:25.064Z,16.80
2018-07-27T19:04:59.030Z,18.27
2018-07-27T19:07:32.221Z,19.73
2018-07-27T19:10:08.731Z,35.17
2018-07-27T19:12:42.454Z,11.85
2018-07-27T19:15:15.344Z,18.30
2018-07-27T19:17:48.355Z,16.20
2018-07-27T19:20:20.659Z,18.05
2018-07-27T19:22:54.040Z,16.00
2018-07-27T19:25:32.577Z,39.70
2018-07-27T19:28:24.799Z,17.60
2018-07-27T19:31:10.167Z,13.10
2018-07-27T19:33:44.734Z,11.50
2018-07-27T19:36:25.905Z,20.00
2018-07-27T19:39:01.404Z,21.57
2018-07-27T19:41:34.085Z,15.95
2018-07-27T19:44:12.164Z,16.87
2018-07-27T19:46:44.438Z,13.08
2018-07-27T19:49:18.875Z,16.00
2018-07-27T19:51:52.467Z,10.90
2018-07-27T19:54:24.845Z,11.68
2018-07-27T19:56:58.104Z,15.88
2018-07-27T19:59:33.881Z,12.03
2018-07-27T20:02:10.697Z,10.93
2018-07-27T20:04:44.141Z,12.78
2018-07-27T20:07:16.912Z,13.38
2018-07-27T20:09:49.546Z,17.98
2018-07-27T20:12:24.403Z,17.73
2018-07-27T20:15:00.242Z,12.90
2018-07-27T20:17:37.193Z,11.60
2018-07-27T20:20:12.367Z,17.55
2018-07-27T20:22:47.207Z,12.47
2018-07-27T20:25:19.386Z,13.48
2018-07-27T20:27:54.392Z,10.75
2018-07-27T20:30:30.293Z,12.35
2018-07-27T20:33:03.084Z,18.57
2018-07-27T20:35:36.341Z,10.63
2018-07-27T20:38:12.659Z,14.05
2018-07-27T20:40:45.192Z,7.25
2018-07-27T20:43:22.993Z,13.95
2018-07-27T20:45:57.360Z,15.00
2018-07-27T20:48:35.153Z,12.30
2018-07-27T20:51:07.617Z,10.20
2018-07-27T20:53:48.040Z,22.82
2018-07-27T20:56:22.300Z,19.20
2018-07-27T20:58:58.488Z,15.55
2018-07-27T21:01:32.418Z,18.87
2018-07-27T21:04:06.004Z,15.68
2018-07-27T21:06:38.983Z,8.08
2018-07-27T21:09:14.891Z,11.83
2018-07-27T21:11:50.037Z,26.55
2018-07-27T21:14:24.197Z,9.10
2018-07-27T21:19:41.363Z,15.72
2018-07-27T21:22:16.815Z,9.97
2018-07-27T21:24:54.425Z,18.80
2018-07-27T21:27:32.561Z,11.18
2018-07-27T21:30:09.919Z,14.75
2018-07-27T21:32:43.323Z,19.42
2018-07-27T21:35:18.392Z,14.40
2018-07-27T21:37:51.987Z,14.45
2018-07-27T21:40:25.905Z,16.65
2018-07-27T21:43:00.150Z,16.32
2018-07-27T21:45:32.363Z,19.93
2018-07-27T21:48:06.060Z,92.75
2018-07-27T21:50:38.411Z,18.70
2018-07-27T21:53:12.773Z,14.50
2018-07-27T21:55:45.538Z,16.50
2018-07-27T21:58:18.748Z,15.40
2018-07-27T22:00:54.875Z,18.50
2018-07-27T22:03:27.383Z,13.45
2018-07-27T22:06:01.420Z,8.75
2018-07-27T22:08:35.209Z,9.73
2018-07-27T22:11:07.489Z,10.48
2018-07-27T22:13:40.042Z,9.77
2018-07-27T22:16:13.198Z,12.85
2018-07-27T22:18:46.414Z,14.50
2018-07-27T22:21:20.046Z,19.83
2018-07-27T22:23:52.480Z,13.10
2018-07-27T22:26:25.284Z,12.50
2018-07-27T22:28:57.668Z,15.63
2018-07-27T22:31:32.056Z,13.55
2018-07-27T22:34:05.377Z,16.50
2018-07-27T22:36:41.082Z,13.80
2018-07-27T22:39:13.849Z,18.40
2018-07-27T22:41:50.508Z,16.70
2018-07-27T22:44:23.682Z,15.05
2018-07-27T22:46:55.779Z,20.45
2018-07-27T22:49:31.561Z,13.43
2018-07-27T22:52:04.717Z,13.30
2018-07-27T22:54:36.988Z,20.37
2018-07-27T22:57:10.777Z,18.33
2018-07-27T22:59:44.547Z,24.30
2018-07-27T23:02:17.787Z,23.20
2018-07-27T23:04:52.518Z,23.50
2018-07-27T23:07:25.884Z,23.20
2018-07-27T23:09:59.276Z,15.10
2018-07-27T23:12:33.758Z,18.55
2018-07-27T23:15:12.115Z,22.00
2018-07-27T23:17:47.084Z,18.60
2018-07-27T23:20:30.140Z,20.90
2018-07-27T23:23:03.837Z,23.75
2018-07-27T23:25:38.698Z,12.65
2018-07-27T23:28:12.269Z,23.70
2018-07-27T23:30:48.195Z,24.60
2018-07-27T23:33:21.915Z,29.20
2018-07-27T23:35:55.312Z,22.90
2018-07-27T23:38:33.490Z,18.20
2018-07-27T23:41:06.275Z,19.63
2018-07-27T23:43:44.366Z,22.40
2018-07-27T23:46:17.607Z,21.70
2018-07-27T23:48:50.472Z,15.10
2018-07-27T23:51:22.948Z,24.15
2018-07-27T23:53:55.923Z,22.10
2018-07-27T23:56:29.937Z,24.35
2018-07-27T23:59:02.832Z,15.20
